sensor_id;sensor_type;location;lat;lon;timestamp;P1;durP1;ratioP1;P2;durP2;ratioP2
3847;SDS011;1939;48.720;9.166;2022-07-23T00:00:27;8.43;;;7.20;;
3847;SDS011;1939;48.720;9.166;2022-07-23T00:02:52;11.43;;;7.20;;
3847;SDS011;1939;48.720;9.166;2022-07-23T00:05:17;10.50;;;6.77;;
3847;SDS011;1939;48.720;9.166;2022-07-23T00:07:42;9.43;;;6.57;;
3847;SDS011;1939;48.720;9.166;2022-07-23T00:10:08;7.33;;;6.13;;
3847;SDS011;1939;48.720;9.166;2022-07-23T00:12:33;6.90;;;6.03;;
3847;SDS011;1939;48.720;9.166;2022-07-23T00:14:59;7.50;;;5.87;;
3847;SDS011;1939;48.720;9.166;2022-07-23T00:17:24;7.60;;;5.03;;
3847;SDS011;1939;48.720;9.166;2022-07-23T00:19:49;10.07;;;6.33;;
3847;SDS011;1939;48.720;9.166;2022-07-23T00:22:15;8.23;;;6.27;;
3847;SDS011;1939;48.720;9.166;2022-07-23T00:24:40;12.67;;;5.57;;
3847;SDS011;1939;48.720;9.166;2022-07-23T00:27:05;5.90;;;5.40;;
3847;SDS011;1939;48.720;9.166;2022-07-23T00:29:31;7.50;;;6.70;;
3847;SDS011;1939;48.720;9.166;2022-07-23T00:31:56;6.00;;;5.40;;
3847;SDS011;1939;48.720;9.166;2022-07-23T00:34:21;5.57;;;5.00;;
3847;SDS011;1939;48.720;9.166;2022-07-23T00:36:46;9.57;;;5.50;;
3847;SDS011;1939;48.720;9.166;2022-07-23T00:39:12;5.93;;;5.23;;
3847;SDS011;1939;48.720;9.166;2022-07-23T00:41:37;7.20;;;6.00;;
3847;SDS011;1939;48.720;9.166;2022-07-23T00:44:15;7.70;;;6.20;;
3847;SDS011;1939;48.720;9.166;2022-07-23T00:46:48;11.23;;;5.40;;
3847;SDS011;1939;48.720;9.166;2022-07-23T00:49:14;5.60;;;5.10;;
3847;SDS011;1939;48.720;9.166;2022-07-23T00:51:39;6.27;;;5.50;;
3847;SDS011;1939;48.720;9.166;2022-07-23T00:54:04;6.57;;;4.80;;
3847;SDS011;1939;48.720;9.166;2022-07-23T00:56:30;5.93;;;5.33;;
3847;SDS011;1939;48.720;9.166;2022-07-23T00:58:55;5.77;;;5.03;;
3847;SDS011;1939;48.720;9.166;2022-07-23T01:01:21;4.67;;;4.20;;
3847;SDS011;1939;48.720;9.166;2022-07-23T01:03:46;7.50;;;5.83;;
3847;SDS011;1939;48.720;9.166;2022-07-23T01:06:11;6.77;;;5.20;;
3847;SDS011;1939;48.720;9.166;2022-07-23T01:08:36;9.07;;;5.90;;
3847;SDS011;1939;48.720;9.166;2022-07-23T01:11:01;7.43;;;4.93;;
3847;SDS011;1939;48.720;9.166;2022-07-23T01:13:27;7.77;;;5.60;;
3847;SDS011;1939;48.720;9.166;2022-07-23T01:15:52;6.60;;;5.50;;
3847;SDS011;1939;48.720;9.166;2022-07-23T01:18:17;5.03;;;4.53;;
3847;SDS011;1939;48.720;9.166;2022-07-23T01:20:43;6.77;;;5.37;;
3847;SDS011;1939;48.720;9.166;2022-07-23T01:23:08;5.40;;;4.63;;
3847;SDS011;1939;48.720;9.166;2022-07-23T01:25:34;7.10;;;4.50;;
3847;SDS011;1939;48.720;9.166;2022-07-23T01:27:59;5.50;;;5.00;;
3847;SDS011;1939;48.720;9.166;2022-07-23T01:30:24;6.40;;;4.87;;
3847;SDS011;1939;48.720;9.166;2022-07-23T01:32:49;7.93;;;4.77;;
3847;SDS011;1939;48.720;9.166;2022-07-23T01:35:15;6.80;;;5.23;;
3847;SDS011;1939;48.720;9.166;2022-07-23T01:37:40;5.80;;;5.30;;
3847;SDS011;1939;48.720;9.166;2022-07-23T01:40:05;6.00;;;5.40;;
3847;SDS011;1939;48.720;9.166;2022-07-23T01:42:31;5.43;;;4.60;;
3847;SDS011;1939;48.720;9.166;2022-07-23T01:44:56;5.07;;;4.57;;
3847;SDS011;1939;48.720;9.166;2022-07-23T01:47:21;5.03;;;4.57;;
3847;SDS011;1939;48.720;9.166;2022-07-23T01:49:47;7.30;;;5.30;;
3847;SDS011;1939;48.720;9.166;2022-07-23T01:52:12;5.77;;;5.27;;
3847;SDS011;1939;48.720;9.166;2022-07-23T01:54:38;8.47;;;5.47;;
3847;SDS011;1939;48.720;9.166;2022-07-23T01:57:05;5.60;;;4.73;;
3847;SDS011;1939;48.720;9.166;2022-07-23T01:59:30;6.10;;;5.50;;
3847;SDS011;1939;48.720;9.166;2022-07-23T02:01:55;6.53;;;5.57;;
3847;SDS011;1939;48.720;9.166;2022-07-23T02:04:21;6.23;;;5.40;;
3847;SDS011;1939;48.720;9.166;2022-07-23T02:06:46;9.00;;;5.30;;
3847;SDS011;1939;48.720;9.166;2022-07-23T02:09:12;7.23;;;5.50;;
3847;SDS011;1939;48.720;9.166;2022-07-23T02:11:37;7.03;;;4.83;;
3847;SDS011;1939;48.720;9.166;2022-07-23T02:14:02;9.20;;;5.73;;
3847;SDS011;1939;48.720;9.166;2022-07-23T02:16:27;6.73;;;5.97;;
3847;SDS011;1939;48.720;9.166;2022-07-23T02:18:53;8.00;;;5.63;;
3847;SDS011;1939;48.720;9.166;2022-07-23T02:21:18;6.33;;;5.07;;
3847;SDS011;1939;48.720;9.166;2022-07-23T02:23:43;10.00;;;5.00;;
3847;SDS011;1939;48.720;9.166;2022-07-23T02:26:08;7.67;;;5.97;;
3847;SDS011;1939;48.720;9.166;2022-07-23T02:28:34;7.57;;;6.30;;
3847;SDS011;1939;48.720;9.166;2022-07-23T02:30:59;5.93;;;5.30;;
3847;SDS011;1939;48.720;9.166;2022-07-23T02:33:24;10.13;;;5.90;;
3847;SDS011;1939;48.720;9.166;2022-07-23T02:35:49;5.37;;;4.87;;
3847;SDS011;1939;48.720;9.166;2022-07-23T02:38:14;7.93;;;5.53;;
3847;SDS011;1939;48.720;9.166;2022-07-23T02:40:40;8.47;;;5.97;;
3847;SDS011;1939;48.720;9.166;2022-07-23T02:43:05;11.40;;;6.10;;
3847;SDS011;1939;48.720;9.166;2022-07-23T02:45:30;7.30;;;5.83;;
3847;SDS011;1939;48.720;9.166;2022-07-23T02:47:55;6.97;;;5.63;;
3847;SDS011;1939;48.720;9.166;2022-07-23T02:50:21;9.67;;;6.50;;
3847;SDS011;1939;48.720;9.166;2022-07-23T02:52:46;6.07;;;5.50;;
3847;SDS011;1939;48.720;9.166;2022-07-23T02:55:11;10.17;;;6.13;;
3847;SDS011;1939;48.720;9.166;2022-07-23T02:57:36;6.97;;;5.53;;
3847;SDS011;1939;48.720;9.166;2022-07-23T03:00:02;9.00;;;5.80;;
3847;SDS011;1939;48.720;9.166;2022-07-23T03:02:28;8.77;;;5.87;;
3847;SDS011;1939;48.720;9.166;2022-07-23T03:04:53;7.10;;;6.00;;
3847;SDS011;1939;48.720;9.166;2022-07-23T03:10:14;6.27;;;5.23;;
3847;SDS011;1939;48.720;9.166;2022-07-23T03:12:39;8.20;;;6.60;;
3847;SDS011;1939;48.720;9.166;2022-07-23T03:15:05;7.70;;;6.20;;
3847;SDS011;1939;48.720;9.166;2022-07-23T03:17:30;7.40;;;6.13;;
3847;SDS011;1939;48.720;9.166;2022-07-23T03:19:55;7.43;;;5.60;;
3847;SDS011;1939;48.720;9.166;2022-07-23T03:22:21;9.23;;;6.77;;
3847;SDS011;1939;48.720;9.166;2022-07-23T03:24:46;6.93;;;6.23;;
3847;SDS011;1939;48.720;9.166;2022-07-23T03:27:24;7.30;;;5.87;;
3847;SDS011;1939;48.720;9.166;2022-07-23T03:29:50;8.63;;;6.23;;
3847;SDS011;1939;48.720;9.166;2022-07-23T03:32:15;9.83;;;6.67;;
3847;SDS011;1939;48.720;9.166;2022-07-23T03:34:40;13.00;;;6.97;;
3847;SDS011;1939;48.720;9.166;2022-07-23T03:37:06;9.63;;;6.43;;
3847;SDS011;1939;48.720;9.166;2022-07-23T03:39:31;8.63;;;5.73;;
3847;SDS011;1939;48.720;9.166;2022-07-23T03:41:56;6.80;;;6.13;;
3847;SDS011;1939;48.720;9.166;2022-07-23T03:44:21;8.23;;;6.40;;
3847;SDS011;1939;48.720;9.166;2022-07-23T03:46:47;9.10;;;7.57;;
3847;SDS011;1939;48.720;9.166;2022-07-23T03:49:12;8.97;;;7.30;;
3847;SDS011;1939;48.720;9.166;2022-07-23T03:51:37;8.23;;;6.17;;
3847;SDS011;1939;48.720;9.166;2022-07-23T03:54:03;7.50;;;6.80;;
3847;SDS011;1939;48.720;9.166;2022-07-23T03:56:28;9.30;;;6.40;;
3847;SDS011;1939;48.720;9.166;2022-07-23T03:58:53;8.10;;;6.73;;
3847;SDS011;1939;48.720;9.166;2022-07-23T04:01:18;8.20;;;6.37;;
3847;SDS011;1939;48.720;9.166;2022-07-23T04:03:43;10.07;;;7.30;;
3847;SDS011;1939;48.720;9.166;2022-07-23T04:06:09;7.43;;;6.67;;
3847;SDS011;1939;48.720;9.166;2022-07-23T04:08:35;7.83;;;6.43;;
3847;SDS011;1939;48.720;9.166;2022-07-23T04:11:00;10.17;;;6.70;;
3847;SDS011;1939;48.720;9.166;2022-07-23T04:13:25;8.53;;;6.33;;
3847;SDS011;1939;48.720;9.166;2022-07-23T04:15:50;8.10;;;6.30;;
3847;SDS011;1939;48.720;9.166;2022-07-23T04:18:16;7.53;;;6.73;;
3847;SDS011;1939;48.720;9.166;2022-07-23T04:20:42;9.83;;;7.60;;
3847;SDS011;1939;48.720;9.166;2022-07-23T04:23:07;7.20;;;6.50;;
3847;SDS011;1939;48.720;9.166;2022-07-23T04:25:34;8.97;;;6.20;;
3847;SDS011;1939;48.720;9.166;2022-07-23T04:27:59;8.83;;;6.63;;
3847;SDS011;1939;48.720;9.166;2022-07-23T04:30:25;8.30;;;7.20;;
3847;SDS011;1939;48.720;9.166;2022-07-23T04:32:50;7.40;;;6.10;;
3847;SDS011;1939;48.720;9.166;2022-07-23T04:35:15;7.30;;;6.23;;
3847;SDS011;1939;48.720;9.166;2022-07-23T04:37:40;10.77;;;6.00;;
3847;SDS011;1939;48.720;9.166;2022-07-23T04:40:06;7.93;;;6.03;;
3847;SDS011;1939;48.720;9.166;2022-07-23T04:42:31;9.87;;;6.60;;
3847;SDS011;1939;48.720;9.166;2022-07-23T04:44:56;11.50;;;7.30;;
3847;SDS011;1939;48.720;9.166;2022-07-23T04:47:21;8.77;;;6.20;;
3847;SDS011;1939;48.720;9.166;2022-07-23T04:49:47;9.30;;;6.47;;
3847;SDS011;1939;48.720;9.166;2022-07-23T04:52:12;9.93;;;7.43;;
3847;SDS011;1939;48.720;9.166;2022-07-23T04:54:37;9.40;;;6.67;;
3847;SDS011;1939;48.720;9.166;2022-07-23T04:57:03;11.00;;;7.80;;
3847;SDS011;1939;48.720;9.166;2022-07-23T04:59:28;8.30;;;7.17;;
3847;SDS011;1939;48.720;9.166;2022-07-23T05:01:53;7.67;;;6.03;;
3847;SDS011;1939;48.720;9.166;2022-07-23T05:04:18;7.60;;;6.90;;
3847;SDS011;1939;48.720;9.166;2022-07-23T05:06:43;6.63;;;5.93;;
3847;SDS011;1939;48.720;9.166;2022-07-23T05:09:09;7.47;;;6.30;;
3847;SDS011;1939;48.720;9.166;2022-07-23T05:11:34;10.07;;;7.27;;
3847;SDS011;1939;48.720;9.166;2022-07-23T05:13:59;11.10;;;7.10;;
3847;SDS011;1939;48.720;9.166;2022-07-23T05:16:24;10.10;;;6.80;;
3847;SDS011;1939;48.720;9.166;2022-07-23T05:18:50;7.67;;;6.43;;
3847;SDS011;1939;48.720;9.166;2022-07-23T05:21:15;11.43;;;6.90;;
3847;SDS011;1939;48.720;9.166;2022-07-23T05:23:40;8.63;;;6.60;;
3847;SDS011;1939;48.720;9.166;2022-07-23T05:26:05;7.20;;;6.33;;
3847;SDS011;1939;48.720;9.166;2022-07-23T05:28:30;8.57;;;6.23;;
3847;SDS011;1939;48.720;9.166;2022-07-23T05:30:56;7.90;;;6.07;;
3847;SDS011;1939;48.720;9.166;2022-07-23T05:33:21;7.93;;;6.23;;
3847;SDS011;1939;48.720;9.166;2022-07-23T05:35:46;7.47;;;6.73;;
3847;SDS011;1939;48.720;9.166;2022-07-23T05:38:11;8.10;;;6.90;;
3847;SDS011;1939;48.720;9.166;2022-07-23T05:40:37;9.23;;;6.80;;
3847;SDS011;1939;48.720;9.166;2022-07-23T05:43:02;8.47;;;6.60;;
3847;SDS011;1939;48.720;9.166;2022-07-23T05:45:27;8.07;;;6.50;;
3847;SDS011;1939;48.720;9.166;2022-07-23T05:47:52;7.00;;;6.27;;
3847;SDS011;1939;48.720;9.166;2022-07-23T05:50:18;8.10;;;6.40;;
3847;SDS011;1939;48.720;9.166;2022-07-23T05:52:43;10.57;;;6.97;;
3847;SDS011;1939;48.720;9.166;2022-07-23T05:55:09;7.30;;;6.23;;
3847;SDS011;1939;48.720;9.166;2022-07-23T05:57:35;10.93;;;6.93;;
3847;SDS011;1939;48.720;9.166;2022-07-23T06:00:00;8.80;;;7.90;;
3847;SDS011;1939;48.720;9.166;2022-07-23T06:02:26;8.33;;;7.43;;
3847;SDS011;1939;48.720;9.166;2022-07-23T06:04:51;10.20;;;7.73;;
3847;SDS011;1939;48.720;9.166;2022-07-23T06:07:16;8.57;;;6.80;;
3847;SDS011;1939;48.720;9.166;2022-07-23T06:09:41;7.03;;;6.40;;
3847;SDS011;1939;48.720;9.166;2022-07-23T06:12:07;8.90;;;7.77;;
3847;SDS011;1939;48.720;9.166;2022-07-23T06:14:32;10.60;;;6.30;;
3847;SDS011;1939;48.720;9.166;2022-07-23T06:16:57;9.83;;;7.33;;
3847;SDS011;1939;48.720;9.166;2022-07-23T06:19:22;7.50;;;6.53;;
3847;SDS011;1939;48.720;9.166;2022-07-23T06:21:48;10.10;;;7.13;;
3847;SDS011;1939;48.720;9.166;2022-07-23T06:24:13;7.57;;;6.67;;
3847;SDS011;1939;48.720;9.166;2022-07-23T06:26:38;10.23;;;7.90;;
3847;SDS011;1939;48.720;9.166;2022-07-23T06:29:03;7.50;;;6.70;;
3847;SDS011;1939;48.720;9.166;2022-07-23T06:31:29;7.97;;;7.17;;
3847;SDS011;1939;48.720;9.166;2022-07-23T06:33:54;11.00;;;7.30;;
3847;SDS011;1939;48.720;9.166;2022-07-23T06:36:19;9.77;;;7.50;;
3847;SDS011;1939;48.720;9.166;2022-07-23T06:38:44;7.97;;;7.20;;
3847;SDS011;1939;48.720;9.166;2022-07-23T06:41:10;11.50;;;7.20;;
3847;SDS011;1939;48.720;9.166;2022-07-23T06:43:35;8.47;;;7.57;;
3847;SDS011;1939;48.720;9.166;2022-07-23T06:46:00;8.33;;;7.03;;
3847;SDS011;1939;48.720;9.166;2022-07-23T06:48:25;8.97;;;7.13;;
3847;SDS011;1939;48.720;9.166;2022-07-23T06:50:51;8.60;;;7.30;;
3847;SDS011;1939;48.720;9.166;2022-07-23T06:53:17;7.90;;;6.77;;
3847;SDS011;1939;48.720;9.166;2022-07-23T06:55:42;11.67;;;6.60;;
3847;SDS011;1939;48.720;9.166;2022-07-23T06:58:08;8.30;;;7.50;;
3847;SDS011;1939;48.720;9.166;2022-07-23T07:00:34;8.80;;;7.33;;
3847;SDS011;1939;48.720;9.166;2022-07-23T07:03:00;7.93;;;6.73;;
3847;SDS011;1939;48.720;9.166;2022-07-23T07:05:25;8.50;;;7.60;;
3847;SDS011;1939;48.720;9.166;2022-07-23T07:07:52;9.37;;;7.30;;
3847;SDS011;1939;48.720;9.166;2022-07-23T07:10:17;10.90;;;6.93;;
3847;SDS011;1939;48.720;9.166;2022-07-23T07:12:43;9.00;;;7.47;;
3847;SDS011;1939;48.720;9.166;2022-07-23T07:15:08;7.90;;;7.07;;
3847;SDS011;1939;48.720;9.166;2022-07-23T07:17:34;7.23;;;6.53;;
3847;SDS011;1939;48.720;9.166;2022-07-23T07:19:59;8.70;;;7.70;;
3847;SDS011;1939;48.720;9.166;2022-07-23T07:22:24;12.70;;;7.97;;
3847;SDS011;1939;48.720;9.166;2022-07-23T07:24:49;8.23;;;7.33;;
3847;SDS011;1939;48.720;9.166;2022-07-23T07:27:15;9.87;;;6.90;;
3847;SDS011;1939;48.720;9.166;2022-07-23T07:29:40;8.77;;;7.10;;
3847;SDS011;1939;48.720;9.166;2022-07-23T07:32:05;7.87;;;6.87;;
3847;SDS011;1939;48.720;9.166;2022-07-23T07:34:31;9.77;;;7.07;;
3847;SDS011;1939;48.720;9.166;2022-07-23T07:36:56;17.27;;;7.00;;
3847;SDS011;1939;48.720;9.166;2022-07-23T07:39:21;7.00;;;6.27;;
3847;SDS011;1939;48.720;9.166;2022-07-23T07:41:46;10.40;;;5.57;;
3847;SDS011;1939;48.720;9.166;2022-07-23T07:44:12;8.77;;;6.97;;
3847;SDS011;1939;48.720;9.166;2022-07-23T07:46:37;6.73;;;6.03;;
3847;SDS011;1939;48.720;9.166;2022-07-23T07:49:02;9.70;;;7.93;;
3847;SDS011;1939;48.720;9.166;2022-07-23T07:51:27;13.63;;;8.47;;
3847;SDS011;1939;48.720;9.166;2022-07-23T07:53:53;7.37;;;6.67;;
3847;SDS011;1939;48.720;9.166;2022-07-23T07:56:19;7.30;;;6.60;;
3847;SDS011;1939;48.720;9.166;2022-07-23T07:58:44;7.43;;;6.17;;
3847;SDS011;1939;48.720;9.166;2022-07-23T08:01:09;8.07;;;5.70;;
3847;SDS011;1939;48.720;9.166;2022-07-23T08:03:34;6.77;;;5.50;;
3847;SDS011;1939;48.720;9.166;2022-07-23T08:05:59;7.07;;;6.47;;
3847;SDS011;1939;48.720;9.166;2022-07-23T08:08:26;6.67;;;6.17;;
3847;SDS011;1939;48.720;9.166;2022-07-23T08:10:51;7.57;;;6.00;;
3847;SDS011;1939;48.720;9.166;2022-07-23T08:13:16;6.40;;;5.77;;
3847;SDS011;1939;48.720;9.166;2022-07-23T08:15:42;7.23;;;6.53;;
3847;SDS011;1939;48.720;9.166;2022-07-23T08:18:08;6.30;;;5.67;;
3847;SDS011;1939;48.720;9.166;2022-07-23T08:20:33;5.87;;;5.37;;
3847;SDS011;1939;48.720;9.166;2022-07-23T08:22:59;6.30;;;5.60;;
3847;SDS011;1939;48.720;9.166;2022-07-23T08:25:25;5.90;;;5.30;;
3847;SDS011;1939;48.720;9.166;2022-07-23T08:27:51;5.90;;;5.40;;
3847;SDS011;1939;48.720;9.166;2022-07-23T08:30:16;6.40;;;5.87;;
3847;SDS011;1939;48.720;9.166;2022-07-23T08:32:58;6.13;;;5.53;;
3847;SDS011;1939;48.720;9.166;2022-07-23T08:35:28;6.93;;;6.23;;
3847;SDS011;1939;48.720;9.166;2022-07-23T08:37:54;9.03;;;5.70;;
3847;SDS011;1939;48.720;9.166;2022-07-23T08:40:20;6.27;;;5.67;;
3847;SDS011;1939;48.720;9.166;2022-07-23T08:42:49;5.93;;;5.20;;
3847;SDS011;1939;48.720;9.166;2022-07-23T08:45:19;7.07;;;5.40;;
3847;SDS011;1939;48.720;9.166;2022-07-23T08:47:45;4.83;;;4.43;;
3847;SDS011;1939;48.720;9.166;2022-07-23T08:50:11;5.67;;;5.03;;
3847;SDS011;1939;48.720;9.166;2022-07-23T08:52:37;5.53;;;4.97;;
3847;SDS011;1939;48.720;9.166;2022-07-23T08:55:03;4.90;;;4.40;;
3847;SDS011;1939;48.720;9.166;2022-07-23T08:57:29;5.07;;;4.67;;
3847;SDS011;1939;48.720;9.166;2022-07-23T08:59:54;7.43;;;4.87;;
3847;SDS011;1939;48.720;9.166;2022-07-23T09:02:20;4.93;;;4.43;;
3847;SDS011;1939;48.720;9.166;2022-07-23T09:04:45;5.40;;;5.00;;
3847;SDS011;1939;48.720;9.166;2022-07-23T09:07:10;4.77;;;4.47;;
3847;SDS011;1939;48.720;9.166;2022-07-23T09:09:35;4.80;;;4.40;;
3847;SDS011;1939;48.720;9.166;2022-07-23T09:14:39;4.60;;;4.30;;
3847;SDS011;1939;48.720;9.166;2022-07-23T09:17:08;4.70;;;4.27;;
3847;SDS011;1939;48.720;9.166;2022-07-23T09:19:33;5.50;;;5.10;;
3847;SDS011;1939;48.720;9.166;2022-07-23T09:22:06;5.37;;;4.90;;
3847;SDS011;1939;48.720;9.166;2022-07-23T09:25:00;5.53;;;5.13;;
3847;SDS011;1939;48.720;9.166;2022-07-23T09:27:25;5.03;;;4.70;;
3847;SDS011;1939;48.720;9.166;2022-07-23T09:30:09;5.23;;;4.80;;
3847;SDS011;1939;48.720;9.166;2022-07-23T09:32:35;4.70;;;4.30;;
3847;SDS011;1939;48.720;9.166;2022-07-23T09:35:00;4.40;;;4.10;;
3847;SDS011;1939;48.720;9.166;2022-07-23T09:37:25;5.07;;;4.67;;
3847;SDS011;1939;48.720;9.166;2022-07-23T09:39:50;5.00;;;4.60;;
3847;SDS011;1939;48.720;9.166;2022-07-23T09:44:44;5.47;;;4.97;;
3847;SDS011;1939;48.720;9.166;2022-07-23T09:47:10;5.17;;;4.70;;
3847;SDS011;1939;48.720;9.166;2022-07-23T09:49:35;5.70;;;5.20;;
3847;SDS011;1939;48.720;9.166;2022-07-23T09:52:00;5.47;;;5.10;;
3847;SDS011;1939;48.720;9.166;2022-07-23T09:54:31;5.90;;;5.40;;
3847;SDS011;1939;48.720;9.166;2022-07-23T09:56:59;4.93;;;4.50;;
3847;SDS011;1939;48.720;9.166;2022-07-23T09:59:28;7.20;;;5.80;;
3847;SDS011;1939;48.720;9.166;2022-07-23T10:01:55;6.27;;;5.77;;
3847;SDS011;1939;48.720;9.166;2022-07-23T10:04:22;6.40;;;5.90;;
3847;SDS011;1939;48.720;9.166;2022-07-23T10:06:48;5.47;;;5.03;;
3847;SDS011;1939;48.720;9.166;2022-07-23T10:09:16;7.10;;;6.40;;
3847;SDS011;1939;48.720;9.166;2022-07-23T10:11:43;5.83;;;5.43;;
3847;SDS011;1939;48.720;9.166;2022-07-23T10:14:09;6.37;;;4.97;;
3847;SDS011;1939;48.720;9.166;2022-07-23T10:16:34;5.23;;;4.83;;
3847;SDS011;1939;48.720;9.166;2022-07-23T10:18:59;5.60;;;5.20;;
3847;SDS011;1939;48.720;9.166;2022-07-23T10:21:27;5.47;;;5.07;;
3847;SDS011;1939;48.720;9.166;2022-07-23T10:24:01;5.93;;;5.30;;
3847;SDS011;1939;48.720;9.166;2022-07-23T10:26:42;7.30;;;6.13;;
3847;SDS011;1939;48.720;9.166;2022-07-23T10:29:16;5.50;;;5.00;;
3847;SDS011;1939;48.720;9.166;2022-07-23T10:34:16;6.63;;;6.10;;
3847;SDS011;1939;48.720;9.166;2022-07-23T10:36:51;6.13;;;5.70;;
3847;SDS011;1939;48.720;9.166;2022-07-23T10:39:19;7.10;;;6.20;;
3847;SDS011;1939;48.720;9.166;2022-07-23T10:41:45;6.63;;;6.07;;
3847;SDS011;1939;48.720;9.166;2022-07-23T10:44:14;7.40;;;5.60;;
3847;SDS011;1939;48.720;9.166;2022-07-23T10:46:56;6.40;;;5.90;;
3847;SDS011;1939;48.720;9.166;2022-07-23T10:49:42;6.40;;;5.70;;
3847;SDS011;1939;48.720;9.166;2022-07-23T10:54:42;7.30;;;6.17;;
3847;SDS011;1939;48.720;9.166;2022-07-23T10:57:08;6.53;;;6.00;;
3847;SDS011;1939;48.720;9.166;2022-07-23T11:02:21;6.77;;;6.20;;
3847;SDS011;1939;48.720;9.166;2022-07-23T11:04:51;10.70;;;6.77;;
3847;SDS011;1939;48.720;9.166;2022-07-23T11:07:17;7.30;;;5.60;;
3847;SDS011;1939;48.720;9.166;2022-07-23T11:09:43;6.80;;;6.20;;
3847;SDS011;1939;48.720;9.166;2022-07-23T11:17:33;6.43;;;5.83;;
3847;SDS011;1939;48.720;9.166;2022-07-23T11:22:40;6.63;;;6.03;;
3847;SDS011;1939;48.720;9.166;2022-07-23T11:27:39;6.10;;;5.60;;
3847;SDS011;1939;48.720;9.166;2022-07-23T11:30:06;6.80;;;5.90;;
3847;SDS011;1939;48.720;9.166;2022-07-23T11:32:33;6.10;;;5.60;;
3847;SDS011;1939;48.720;9.166;2022-07-23T11:35:00;7.33;;;6.63;;
3847;SDS011;1939;48.720;9.166;2022-07-23T11:37:39;6.17;;;5.60;;
3847;SDS011;1939;48.720;9.166;2022-07-23T11:40:08;6.50;;;5.90;;
3847;SDS011;1939;48.720;9.166;2022-07-23T11:42:34;6.80;;;6.20;;
3847;SDS011;1939;48.720;9.166;2022-07-23T11:45:00;6.37;;;5.80;;
3847;SDS011;1939;48.720;9.166;2022-07-23T11:47:26;5.87;;;5.37;;
3847;SDS011;1939;48.720;9.166;2022-07-23T11:49:52;5.47;;;5.10;;
3847;SDS011;1939;48.720;9.166;2022-07-23T11:52:18;6.90;;;6.30;;
3847;SDS011;1939;48.720;9.166;2022-07-23T11:57:32;6.73;;;6.13;;
3847;SDS011;1939;48.720;9.166;2022-07-23T12:00:15;8.70;;;7.90;;
3847;SDS011;1939;48.720;9.166;2022-07-23T12:02:42;6.47;;;5.90;;
3847;SDS011;1939;48.720;9.166;2022-07-23T12:05:08;5.70;;;5.27;;
3847;SDS011;1939;48.720;9.166;2022-07-23T12:07:42;8.33;;;6.03;;
3847;SDS011;1939;48.720;9.166;2022-07-23T12:10:19;6.63;;;5.90;;
3847;SDS011;1939;48.720;9.166;2022-07-23T12:12:47;6.37;;;5.83;;
3847;SDS011;1939;48.720;9.166;2022-07-23T12:15:14;6.47;;;5.83;;
3847;SDS011;1939;48.720;9.166;2022-07-23T12:17:41;6.60;;;6.00;;
3847;SDS011;1939;48.720;9.166;2022-07-23T12:20:07;7.33;;;5.83;;
3847;SDS011;1939;48.720;9.166;2022-07-23T12:22:40;6.23;;;5.67;;
3847;SDS011;1939;48.720;9.166;2022-07-23T12:25:13;6.43;;;5.93;;
3847;SDS011;1939;48.720;9.166;2022-07-23T12:27:38;7.10;;;6.50;;
3847;SDS011;1939;48.720;9.166;2022-07-23T12:30:25;7.40;;;6.70;;
3847;SDS011;1939;48.720;9.166;2022-07-23T12:32:50;6.80;;;6.17;;
3847;SDS011;1939;48.720;9.166;2022-07-23T12:35:16;9.70;;;6.30;;
3847;SDS011;1939;48.720;9.166;2022-07-23T12:37:41;7.90;;;7.30;;
3847;SDS011;1939;48.720;9.166;2022-07-23T12:40:27;7.13;;;6.60;;
3847;SDS011;1939;48.720;9.166;2022-07-23T12:43:03;7.80;;;7.10;;
3847;SDS011;1939;48.720;9.166;2022-07-23T12:45:41;6.60;;;6.00;;
3847;SDS011;1939;48.720;9.166;2022-07-23T12:48:07;7.03;;;6.33;;
3847;SDS011;1939;48.720;9.166;2022-07-23T12:50:37;8.10;;;7.30;;
3847;SDS011;1939;48.720;9.166;2022-07-23T12:53:06;6.63;;;5.90;;
3847;SDS011;1939;48.720;9.166;2022-07-23T12:55:32;10.20;;;6.10;;
3847;SDS011;1939;48.720;9.166;2022-07-23T12:58:04;7.10;;;5.80;;
3847;SDS011;1939;48.720;9.166;2022-07-23T13:00:30;7.60;;;6.23;;
3847;SDS011;1939;48.720;9.166;2022-07-23T13:02:55;7.27;;;6.67;;
3847;SDS011;1939;48.720;9.166;2022-07-23T13:05:20;9.80;;;6.53;;
3847;SDS011;1939;48.720;9.166;2022-07-23T13:07:45;8.50;;;7.70;;
3847;SDS011;1939;48.720;9.166;2022-07-23T13:10:11;8.07;;;7.20;;
3847;SDS011;1939;48.720;9.166;2022-07-23T13:12:37;6.87;;;6.30;;
3847;SDS011;1939;48.720;9.166;2022-07-23T13:15:02;8.10;;;6.80;;
3847;SDS011;1939;48.720;9.166;2022-07-23T13:17:27;7.47;;;6.80;;
3847;SDS011;1939;48.720;9.166;2022-07-23T13:19:53;7.67;;;7.03;;
3847;SDS011;1939;48.720;9.166;2022-07-23T13:22:18;7.70;;;6.97;;
3847;SDS011;1939;48.720;9.166;2022-07-23T13:24:43;7.57;;;6.90;;
3847;SDS011;1939;48.720;9.166;2022-07-23T13:27:08;7.13;;;6.43;;
3847;SDS011;1939;48.720;9.166;2022-07-23T13:29:33;7.37;;;6.77;;
3847;SDS011;1939;48.720;9.166;2022-07-23T13:31:59;7.13;;;6.53;;
3847;SDS011;1939;48.720;9.166;2022-07-23T13:34:24;6.90;;;6.30;;
3847;SDS011;1939;48.720;9.166;2022-07-23T13:36:49;6.97;;;6.30;;
3847;SDS011;1939;48.720;9.166;2022-07-23T13:39:14;10.93;;;7.10;;
3847;SDS011;1939;48.720;9.166;2022-07-23T13:41:40;8.50;;;6.77;;
3847;SDS011;1939;48.720;9.166;2022-07-23T13:44:05;9.20;;;8.23;;
3847;SDS011;1939;48.720;9.166;2022-07-23T13:46:31;8.27;;;7.30;;
3847;SDS011;1939;48.720;9.166;2022-07-23T13:48:56;7.47;;;6.80;;
3847;SDS011;1939;48.720;9.166;2022-07-23T13:51:21;8.70;;;7.80;;
3847;SDS011;1939;48.720;9.166;2022-07-23T13:53:46;33.77;;;26.03;;
3847;SDS011;1939;48.720;9.166;2022-07-23T13:56:12;7.93;;;7.07;;
3847;SDS011;1939;48.720;9.166;2022-07-23T13:58:37;8.73;;;7.67;;
3847;SDS011;1939;48.720;9.166;2022-07-23T14:01:02;8.20;;;7.40;;
3847;SDS011;1939;48.720;9.166;2022-07-23T14:03:28;9.03;;;7.17;;
3847;SDS011;1939;48.720;9.166;2022-07-23T14:05:53;7.97;;;7.17;;
3847;SDS011;1939;48.720;9.166;2022-07-23T14:08:19;11.20;;;9.00;;
3847;SDS011;1939;48.720;9.166;2022-07-23T14:10:44;8.77;;;8.00;;
3847;SDS011;1939;48.720;9.166;2022-07-23T14:13:09;13.37;;;10.77;;
3847;SDS011;1939;48.720;9.166;2022-07-23T14:15:34;10.83;;;9.03;;
3847;SDS011;1939;48.720;9.166;2022-07-23T14:18:00;12.53;;;8.43;;
3847;SDS011;1939;48.720;9.166;2022-07-23T14:20:25;16.10;;;13.27;;
3847;SDS011;1939;48.720;9.166;2022-07-23T14:22:50;16.13;;;13.93;;
3847;SDS011;1939;48.720;9.166;2022-07-23T14:25:16;10.83;;;8.80;;
3847;SDS011;1939;48.720;9.166;2022-07-23T14:27:41;8.60;;;7.67;;
3847;SDS011;1939;48.720;9.166;2022-07-23T14:30:07;14.20;;;12.20;;
3847;SDS011;1939;48.720;9.166;2022-07-23T14:32:33;10.60;;;9.60;;
3847;SDS011;1939;48.720;9.166;2022-07-23T14:34:58;10.33;;;8.17;;
3847;SDS011;1939;48.720;9.166;2022-07-23T14:37:23;8.93;;;8.00;;
3847;SDS011;1939;48.720;9.166;2022-07-23T14:39:49;8.13;;;7.30;;
3847;SDS011;1939;48.720;9.166;2022-07-23T14:42:15;10.77;;;9.87;;
3847;SDS011;1939;48.720;9.166;2022-07-23T14:44:40;8.63;;;7.10;;
3847;SDS011;1939;48.720;9.166;2022-07-23T14:47:07;9.20;;;8.30;;
3847;SDS011;1939;48.720;9.166;2022-07-23T14:49:33;10.87;;;9.73;;
3847;SDS011;1939;48.720;9.166;2022-07-23T14:51:58;9.57;;;7.93;;
3847;SDS011;1939;48.720;9.166;2022-07-23T14:54:23;11.63;;;6.80;;
3847;SDS011;1939;48.720;9.166;2022-07-23T14:56:50;8.10;;;7.40;;
3847;SDS011;1939;48.720;9.166;2022-07-23T14:59:16;9.90;;;7.10;;
3847;SDS011;1939;48.720;9.166;2022-07-23T15:01:41;10.80;;;8.80;;
3847;SDS011;1939;48.720;9.166;2022-07-23T15:04:06;11.83;;;10.20;;
3847;SDS011;1939;48.720;9.166;2022-07-23T15:06:32;10.00;;;8.80;;
3847;SDS011;1939;48.720;9.166;2022-07-23T15:08:58;13.73;;;12.33;;
3847;SDS011;1939;48.720;9.166;2022-07-23T15:11:23;14.90;;;13.30;;
3847;SDS011;1939;48.720;9.166;2022-07-23T15:13:48;26.33;;;21.77;;
3847;SDS011;1939;48.720;9.166;2022-07-23T15:16:14;12.70;;;11.40;;
3847;SDS011;1939;48.720;9.166;2022-07-23T15:18:39;23.40;;;16.00;;
3847;SDS011;1939;48.720;9.166;2022-07-23T15:21:04;10.57;;;9.43;;
3847;SDS011;1939;48.720;9.166;2022-07-23T15:23:30;14.00;;;9.43;;
3847;SDS011;1939;48.720;9.166;2022-07-23T15:25:55;9.37;;;8.00;;
3847;SDS011;1939;48.720;9.166;2022-07-23T15:28:21;11.60;;;8.87;;
3847;SDS011;1939;48.720;9.166;2022-07-23T15:30:46;7.23;;;6.60;;
3847;SDS011;1939;48.720;9.166;2022-07-23T15:33:12;13.47;;;12.30;;
3847;SDS011;1939;48.720;9.166;2022-07-23T15:35:37;30.70;;;27.70;;